Time;durP1;ratioP1;P1;durP2;ratioP2;P2;SDS_P1;SDS_P2;PMS_P1;PMS_P2;Temp;Humidity;BMP_temperature;BMP_pressure;BME280_temperature;BME280_humidity;BME280_pressure;Samples;Min_cycle;Max_cycle;Signal;HPM_P1;HPM_P2
2022/10/09 00:02:08;;;;;;;7.32;1.88;;;8.80;99.90;;;;;;5129236;27;20399;-74
2022/10/09 00:04:33;;;;;;;7.47;2.05;;;8.70;99.90;;;;;;5129867;27;20406;-74
2022/10/09 00:06:59;;;;;;;7.60;2.28;;;8.80;99.90;;;;;;5112755;27;20928;-74
2022/10/09 00:09:25;;;;;;;7.43;2.10;;;8.70;99.90;;;;;;5117928;27;20739;-74
2022/10/09 00:11:50;;;;;;;8.98;2.45;;;8.80;99.90;;;;;;5109987;27;20408;-74
2022/10/09 00:14:16;;;;;;;7.30;2.10;;;8.70;99.90;;;;;;5111627;27;20411;-74
2022/10/09 00:16:41;;;;;;;7.97;2.20;;;8.70;99.90;;;;;;5123648;27;20834;-74
2022/10/09 00:19:07;;;;;;;10.70;2.30;;;8.70;99.90;;;;;;5129718;27;20431;-74
2022/10/09 00:21:33;;;;;;;8.07;2.00;;;8.70;99.90;;;;;;5130174;27;20425;-74
2022/10/09 00:24:01;;;;;;;8.27;2.10;;;8.70;99.90;;;;;;5117220;27;20461;-74
2022/10/09 00:26:27;;;;;;;8.82;2.20;;;8.70;99.90;;;;;;5120199;27;20951;-71
2022/10/09 00:28:54;;;;;;;7.22;2.50;;;8.60;99.90;;;;;;5110015;28;21014;-72
2022/10/09 00:31:19;;;;;;;7.40;2.30;;;8.60;99.90;;;;;;5120385;27;20481;-74
2022/10/09 00:33:46;;;;;;;7.43;2.10;;;8.60;99.90;;;;;;5113882;27;20507;-74
2022/10/09 00:36:15;;;;;;;6.80;2.00;;;8.70;99.90;;;;;;5114532;27;20790;-74
2022/10/09 00:38:41;;;;;;;6.13;2.10;;;8.60;99.90;;;;;;5109251;28;20436;-74
2022/10/09 00:41:07;;;;;;;7.37;2.27;;;8.60;99.90;;;;;;5114587;27;20925;-74
2022/10/09 00:43:43;;;;;;;7.88;1.98;;;8.60;99.90;;;;;;5123455;27;20889;-74
2022/10/09 00:46:27;;;;;;;7.53;1.70;;;8.60;99.90;;;;;;5110063;28;20404;-74
2022/10/09 00:49:11;;;;;;;5.70;2.22;;;8.60;99.90;;;;;;5108915;28;20405;-74
2022/10/09 00:51:37;;;;;;;8.38;2.33;;;8.60;99.90;;;;;;5115589;27;20403;-74
2022/10/09 00:54:06;;;;;;;5.57;2.25;;;8.60;99.90;;;;;;5120016;27;20397;-74
2022/10/09 00:56:33;;;;;;;8.75;2.20;;;8.60;99.90;;;;;;5112804;27;20464;-71
2022/10/09 00:58:59;;;;;;;7.40;2.20;;;8.60;99.90;;;;;;5129739;27;20427;-73
2022/10/09 01:01:25;;;;;;;7.13;2.00;;;8.60;99.90;;;;;;5111639;27;20396;-72
2022/10/09 01:03:51;;;;;;;7.47;2.20;;;8.60;99.90;;;;;;5109301;28;20412;-72
2022/10/09 01:06:25;;;;;;;9.52;2.45;;;8.50;99.90;;;;;;5127112;27;20395;-72
2022/10/09 01:09:12;;;;;;;6.68;2.13;;;8.60;99.90;;;;;;5117559;27;20401;-72
2022/10/09 01:12:09;;;;;;;10.05;2.67;;;8.60;99.90;;;;;;5109122;28;20503;-72
2022/10/09 01:14:49;;;;;;;6.68;2.30;;;8.60;99.90;;;;;;5128993;27;20918;-72
2022/10/09 01:17:33;;;;;;;8.38;2.47;;;8.60;99.90;;;;;;5128658;27;20411;-72
2022/10/09 01:20:37;;;;;;;6.75;2.20;;;8.60;99.90;;;;;;5127535;27;20399;-72
2022/10/09 01:23:22;;;;;;;7.97;2.15;;;8.60;99.90;;;;;;5127868;27;20415;-73
2022/10/09 01:26:15;;;;;;;5.90;2.17;;;8.60;99.90;;;;;;5125562;27;20399;-73
2022/10/09 01:28:45;;;;;;;8.80;2.38;;;8.50;99.90;;;;;;5124498;27;20399;-73
2022/10/09 01:31:13;;;;;;;8.95;2.35;;;8.50;99.90;;;;;;5115437;27;20908;-73
2022/10/09 01:33:39;;;;;;;7.10;2.10;;;8.60;99.90;;;;;;5115606;27;20438;-73
2022/10/09 01:36:07;;;;;;;9.45;2.28;;;8.50;99.90;;;;;;5127409;27;20475;-73
2022/10/09 01:38:33;;;;;;;8.30;2.33;;;8.50;99.90;;;;;;5128337;27;20395;-73
2022/10/09 01:41:02;;;;;;;7.80;2.30;;;8.50;99.90;;;;;;5121708;27;20457;-73
2022/10/09 01:43:28;;;;;;;10.47;2.33;;;8.50;99.90;;;;;;5108022;28;20431;-73
2022/10/09 01:46:21;;;;;;;8.63;2.30;;;8.50;99.90;;;;;;5115415;27;20419;-73
2022/10/09 01:48:53;;;;;;;8.82;2.40;;;8.50;99.90;;;;;;5114957;27;20444;-73
2022/10/09 01:51:22;;;;;;;9.75;2.42;;;8.50;99.90;;;;;;5129053;27;20398;-73
2022/10/09 01:53:52;;;;;;;6.82;2.20;;;8.50;99.90;;;;;;5128026;27;20394;-73
2022/10/09 01:56:21;;;;;;;9.38;2.60;;;8.40;99.90;;;;;;5128401;27;20423;-73
2022/10/09 01:58:59;;;;;;;9.82;2.22;;;8.50;99.90;;;;;;5114801;27;20813;-73
2022/10/09 02:01:34;;;;;;;7.10;2.25;;;8.50;99.90;;;;;;5095780;27;20416;-73
2022/10/09 02:04:03;;;;;;;9.20;2.17;;;8.50;99.90;;;;;;5108520;27;20412;-73
2022/10/09 02:06:30;;;;;;;9.80;2.53;;;8.40;99.90;;;;;;5109032;28;20423;-73
2022/10/09 02:08:56;;;;;;;10.93;2.60;;;8.40;99.90;;;;;;5108745;28;20403;-73
2022/10/09 02:11:26;;;;;;;8.40;2.60;;;8.40;99.90;;;;;;5107423;28;20400;-73
2022/10/09 02:13:52;;;;;;;8.45;2.50;;;8.40;99.90;;;;;;5107879;28;20396;-73
2022/10/09 02:16:38;;;;;;;8.68;2.40;;;8.40;99.90;;;;;;5107992;28;20483;-73
2022/10/09 02:19:07;;;;;;;9.32;2.10;;;8.40;99.90;;;;;;5106379;28;20420;-73
2022/10/09 02:21:45;;;;;;;9.68;2.50;;;8.40;99.90;;;;;;5107640;28;20925;-73
2022/10/09 02:24:18;;;;;;;8.05;2.22;;;8.40;99.90;;;;;;5104418;28;20814;-73
2022/10/09 02:26:44;;;;;;;7.20;2.15;;;8.30;99.90;;;;;;5107831;28;20873;-73
2022/10/09 02:29:11;;;;;;;7.25;2.20;;;8.30;99.90;;;;;;5107479;28;20767;-73
2022/10/09 02:31:39;;;;;;;6.32;1.90;;;8.30;99.90;;;;;;5108567;28;20396;-73
2022/10/09 02:34:08;;;;;;;10.10;2.20;;;8.30;99.90;;;;;;5116619;27;20422;-73
2022/10/09 02:36:35;;;;;;;8.35;2.20;;;8.30;99.90;;;;;;5114224;27;20427;-73
2022/10/09 02:39:02;;;;;;;9.33;2.33;;;8.20;99.90;;;;;;5107907;28;20411;-73
2022/10/09 02:41:28;;;;;;;10.27;2.70;;;8.20;99.90;;;;;;5108180;28;20681;-73
2022/10/09 02:43:54;;;;;;;7.55;1.92;;;8.20;99.90;;;;;;5089140;28;20942;-73
2022/10/09 02:46:20;;;;;;;9.63;2.05;;;8.20;99.90;;;;;;5108184;28;20400;-73
2022/10/09 02:48:46;;;;;;;8.52;2.10;;;8.20;99.90;;;;;;5095455;28;20483;-73
2022/10/09 02:51:12;;;;;;;8.45;2.53;;;8.20;99.90;;;;;;5107218;28;20691;-73
2022/10/09 02:53:37;;;;;;;7.78;1.98;;;8.20;99.90;;;;;;5107798;28;20393;-73
2022/10/09 02:56:03;;;;;;;7.87;2.23;;;8.10;99.90;;;;;;5107453;28;21349;-73
2022/10/09 02:58:30;;;;;;;7.93;2.10;;;8.10;99.90;;;;;;5121145;28;20402;-73
2022/10/09 03:00:56;;;;;;;8.25;2.00;;;8.10;99.90;;;;;;5108140;27;20437;-73
2022/10/09 03:03:22;;;;;;;6.70;2.00;;;8.10;99.90;;;;;;5106876;28;20400;-73
2022/10/09 03:05:47;;;;;;;8.00;2.22;;;8.10;99.90;;;;;;5107781;28;20396;-73
2022/10/09 03:08:13;;;;;;;7.53;2.30;;;8.00;99.90;;;;;;5107943;28;20401;-73
2022/10/09 03:10:40;;;;;;;6.97;1.90;;;8.00;99.90;;;;;;5106686;28;20431;-73
2022/10/09 03:13:06;;;;;;;8.17;1.90;;;8.00;99.90;;;;;;5107899;28;20407;-74
2022/10/09 03:15:36;;;;;;;6.03;2.17;;;8.00;99.90;;;;;;5108322;27;20430;-73
2022/10/09 03:18:02;;;;;;;11.00;2.58;;;8.00;99.90;;;;;;5107471;28;20471;-73
2022/10/09 03:20:30;;;;;;;5.70;1.95;;;7.90;99.90;;;;;;5107996;28;20921;-73
2022/10/09 03:22:56;;;;;;;8.70;2.08;;;7.90;99.90;;;;;;5107646;28;20410;-73
2022/10/09 03:25:21;;;;;;;9.55;2.22;;;7.90;99.90;;;;;;5107061;28;20408;-73
2022/10/09 03:27:47;;;;;;;8.35;1.95;;;7.90;99.90;;;;;;5110648;28;20403;-73
2022/10/09 03:30:13;;;;;;;6.83;2.17;;;7.90;99.90;;;;;;5131527;27;20801;-73
2022/10/09 03:32:39;;;;;;;7.55;1.98;;;7.90;99.90;;;;;;5131822;27;20920;-73
2022/10/09 03:35:05;;;;;;;6.40;2.20;;;7.90;99.90;;;;;;5124237;27;20453;-73
2022/10/09 03:37:30;;;;;;;7.95;1.88;;;7.80;99.90;;;;;;5124639;27;20430;-73
2022/10/09 03:39:57;;;;;;;5.57;1.95;;;7.80;99.90;;;;;;5118307;27;20422;-73
2022/10/09 03:42:23;;;;;;;7.60;2.05;;;7.80;99.90;;;;;;5117707;27;20393;-73
2022/10/09 03:44:49;;;;;;;6.30;2.03;;;7.80;99.90;;;;;;5110883;28;20408;-73
2022/10/09 03:47:14;;;;;;;6.75;2.35;;;7.80;99.90;;;;;;5111032;28;20399;-73
2022/10/09 03:49:41;;;;;;;5.07;1.90;;;7.80;99.90;;;;;;5097510;28;20400;-73
2022/10/09 03:52:06;;;;;;;5.63;1.90;;;7.70;99.90;;;;;;5111306;27;20504;-73
2022/10/09 03:54:32;;;;;;;8.20;2.15;;;7.70;99.90;;;;;;5110735;28;20758;-73
2022/10/09 03:56:58;;;;;;;6.13;2.23;;;7.70;99.90;;;;;;5124460;27;20415;-73
2022/10/09 03:59:23;;;;;;;7.85;2.20;;;7.70;99.90;;;;;;5122564;27;20413;-73
2022/10/09 04:01:49;;;;;;;6.43;2.30;;;7.70;99.90;;;;;;5110442;28;20404;-73
2022/10/09 04:04:15;;;;;;;7.50;2.07;;;7.70;99.90;;;;;;5113991;27;20400;-73
2022/10/09 04:06:40;;;;;;;6.82;2.15;;;7.70;99.90;;;;;;5123995;27;20459;-73
2022/10/09 04:09:06;;;;;;;7.83;2.20;;;7.60;99.90;;;;;;5102312;28;20879;-73
2022/10/09 04:11:32;;;;;;;6.30;2.50;;;7.60;99.90;;;;;;5128908;27;20403;-73
2022/10/09 04:13:58;;;;;;;6.60;2.40;;;7.60;99.90;;;;;;5130858;27;20386;-73
2022/10/09 04:16:24;;;;;;;6.75;2.30;;;7.60;99.90;;;;;;5128445;27;20439;-73
2022/10/09 04:18:49;;;;;;;6.73;2.00;;;7.60;99.90;;;;;;5110504;28;20388;-73
2022/10/09 04:21:15;;;;;;;5.72;2.10;;;7.60;99.90;;;;;;5123721;27;20398;-73
2022/10/09 04:23:41;;;;;;;7.27;2.00;;;7.50;99.90;;;;;;5109969;27;20507;-73
2022/10/09 04:26:06;;;;;;;5.60;2.42;;;7.50;99.90;;;;;;5123376;27;20395;-73
2022/10/09 04:28:34;;;;;;;14.25;2.85;;;7.50;99.90;;;;;;5118254;27;20438;-73
2022/10/09 04:31:00;;;;;;;6.63;2.85;;;7.50;99.90;;;;;;5128315;27;20426;-73
2022/10/09 04:33:26;;;;;;;7.05;2.72;;;7.50;99.90;;;;;;5127422;27;20405;-73
2022/10/09 04:35:53;;;;;;;8.95;3.08;;;7.40;99.90;;;;;;5110100;27;20428;-73
2022/10/09 04:38:20;;;;;;;4.90;2.80;;;7.40;99.90;;;;;;5107748;27;20417;-73
2022/10/09 04:40:59;;;;;;;8.73;3.13;;;7.40;99.90;;;;;;5110130;28;20455;-73
2022/10/09 04:43:26;;;;;;;7.72;3.13;;;7.40;99.90;;;;;;5127112;27;20478;-72
2022/10/09 04:45:51;;;;;;;9.52;3.63;;;7.40;99.90;;;;;;5129973;27;20905;-73
2022/10/09 04:48:17;;;;;;;8.70;3.30;;;7.40;99.90;;;;;;5129877;27;20479;-73
2022/10/09 04:50:43;;;;;;;6.87;2.87;;;7.40;99.90;;;;;;5130445;27;20489;-73
2022/10/09 04:53:08;;;;;;;7.70;3.38;;;7.40;99.90;;;;;;5128916;27;20459;-73
2022/10/09 04:55:41;;;;;;;8.00;3.50;;;7.40;99.90;;;;;;5129851;27;20410;-73
2022/10/09 04:58:09;;;;;;;8.63;3.65;;;7.40;99.90;;;;;;5128085;27;20406;-73
2022/10/09 05:00:42;;;;;;;8.10;3.67;;;7.40;99.90;;;;;;5128529;27;20414;-73
2022/10/09 05:03:08;;;;;;;7.78;3.95;;;7.40;99.90;;;;;;5126295;27;20518;-73
2022/10/09 05:05:34;;;;;;;9.10;3.72;;;7.40;99.90;;;;;;5132410;27;20425;-74
2022/10/09 05:07:59;;;;;;;7.23;3.60;;;7.40;99.90;;;;;;5138655;27;20407;-73
2022/10/09 05:10:25;;;;;;;8.27;3.92;;;7.30;99.90;;;;;;5141356;27;20391;-73
2022/10/09 05:12:51;;;;;;;9.13;4.10;;;7.20;99.90;;;;;;5134180;27;20432;-73
2022/10/09 05:15:18;;;;;;;9.30;3.90;;;7.20;99.90;;;;;;5109957;28;20419;-73
2022/10/09 05:17:44;;;;;;;9.65;4.00;;;7.30;99.90;;;;;;5122105;27;20400;-71
2022/10/09 05:20:10;;;;;;;8.57;4.03;;;7.20;99.90;;;;;;5109973;28;20408;-72
2022/10/09 05:22:35;;;;;;;10.20;4.00;;;7.20;99.90;;;;;;5112763;27;20814;-72
2022/10/09 05:25:01;;;;;;;8.73;4.57;;;7.20;99.90;;;;;;5128748;27;20410;-73
2022/10/09 05:27:26;;;;;;;9.13;4.50;;;7.20;99.90;;;;;;5128593;27;20406;-72
2022/10/09 05:29:52;;;;;;;8.20;4.13;;;7.20;99.90;;;;;;5129013;27;20395;-73
2022/10/09 05:32:18;;;;;;;10.60;4.60;;;7.10;99.90;;;;;;5128950;27;20406;-73
2022/10/09 05:34:43;;;;;;;8.27;4.57;;;7.10;99.90;;;;;;5137809;27;20398;-73
2022/10/09 05:37:09;;;;;;;9.67;4.70;;;7.10;99.90;;;;;;5139565;27;20857;-72
2022/10/09 05:39:34;;;;;;;9.10;4.53;;;7.10;99.90;;;;;;5138285;27;20395;-73
2022/10/09 05:42:01;;;;;;;12.55;5.20;;;7.10;99.90;;;;;;5135789;27;20488;-73
2022/10/09 05:44:26;;;;;;;10.73;4.72;;;7.00;99.90;;;;;;5128881;27;20760;-73
2022/10/09 05:46:52;;;;;;;10.97;5.43;;;7.10;99.90;;;;;;5127725;27;20398;-73
2022/10/09 05:49:18;;;;;;;11.32;5.40;;;7.00;99.90;;;;;;5127758;27;20899;-73
2022/10/09 05:51:43;;;;;;;10.63;5.60;;;7.10;99.90;;;;;;5127749;27;20957;-73
2022/10/09 05:54:14;;;;;;;11.02;6.10;;;7.10;99.90;;;;;;5128287;27;20951;-73
2022/10/09 05:56:41;;;;;;;12.75;6.45;;;7.10;99.90;;;;;;5127504;27;20787;-73
2022/10/09 05:59:13;;;;;;;13.13;6.57;;;7.10;99.90;;;;;;5127595;27;20410;-73
2022/10/09 06:01:45;;;;;;;11.30;6.82;;;7.10;99.90;;;;;;5126750;27;20402;-72
2022/10/09 06:04:22;;;;;;;12.27;6.80;;;7.10;99.90;;;;;;5126822;27;20863;-73
2022/10/09 06:06:49;;;;;;;12.00;6.23;;;7.10;99.90;;;;;;5128426;27;20403;-73
2022/10/09 06:09:17;;;;;;;10.75;6.38;;;7.10;99.90;;;;;;5113095;27;20402;-73
2022/10/09 06:11:43;;;;;;;11.43;6.18;;;7.10;99.90;;;;;;5108450;28;20405;-73
2022/10/09 06:14:11;;;;;;;11.45;6.40;;;7.10;99.90;;;;;;5123741;27;20395;-73
2022/10/09 06:16:42;;;;;;;10.80;6.20;;;7.10;99.90;;;;;;5117869;27;20993;-73
2022/10/09 06:19:13;;;;;;;12.43;6.40;;;7.10;99.90;;;;;;5108272;28;20432;-73
2022/10/09 06:21:39;;;;;;;12.50;6.40;;;7.20;99.90;;;;;;5107754;28;20416;-73
2022/10/09 06:24:06;;;;;;;13.02;6.75;;;7.10;99.90;;;;;;5108279;28;20411;-73
2022/10/09 06:26:32;;;;;;;11.37;6.20;;;7.10;99.90;;;;;;5108810;27;20798;-73
2022/10/09 06:28:59;;;;;;;14.00;6.72;;;7.20;99.90;;;;;;5107119;27;20404;-72
2022/10/09 06:31:28;;;;;;;14.02;7.00;;;7.20;99.90;;;;;;5108821;28;20396;-73
2022/10/09 06:33:54;;;;;;;12.90;7.00;;;7.20;99.90;;;;;;5109161;28;20403;-73
2022/10/09 06:36:23;;;;;;;14.40;6.83;;;7.20;99.90;;;;;;5103992;28;20442;-73
2022/10/09 06:38:49;;;;;;;13.20;7.15;;;7.20;99.90;;;;;;5107842;28;20970;-74
2022/10/09 06:41:25;;;;;;;12.35;6.60;;;7.30;99.90;;;;;;5110553;27;20404;-75
2022/10/09 06:44:03;;;;;;;14.20;6.57;;;7.30;99.90;;;;;;5105554;28;20408;-76
2022/10/09 06:46:37;;;;;;;12.48;7.13;;;7.30;99.90;;;;;;5106975;28;20450;-74
2022/10/09 06:49:04;;;;;;;13.65;6.78;;;7.30;99.90;;;;;;5107042;28;20412;-74
2022/10/09 06:51:31;;;;;;;14.07;7.00;;;7.40;99.90;;;;;;5105620;28;20922;-74
2022/10/09 06:53:59;;;;;;;12.50;6.72;;;7.40;99.90;;;;;;5106936;28;20400;-75
2022/10/09 06:56:27;;;;;;;13.55;7.03;;;7.50;99.90;;;;;;5106930;28;21125;-74
2022/10/09 06:58:53;;;;;;;15.00;7.53;;;7.50;99.90;;;;;;5106918;28;20404;-74
2022/10/09 07:01:31;;;;;;;14.02;7.40;;;7.50;99.90;;;;;;5108716;28;20756;-74
2022/10/09 07:04:06;;;;;;;14.98;7.35;;;7.60;99.90;;;;;;5118675;27;20849;-74
2022/10/09 07:06:35;;;;;;;14.95;7.20;;;7.60;99.90;;;;;;5107884;28;20401;-74
2022/10/09 07:09:04;;;;;;;13.90;7.50;;;7.60;99.90;;;;;;5110445;27;20400;-74
2022/10/09 07:11:33;;;;;;;15.98;7.60;;;7.60;99.90;;;;;;5110364;27;20440;-75
2022/10/09 07:14:01;;;;;;;19.15;8.55;;;7.70;99.90;;;;;;5110332;28;20407;-75
2022/10/09 07:16:32;;;;;;;17.25;8.90;;;7.70;99.90;;;;;;5111436;27;20439;-74
2022/10/09 07:19:00;;;;;;;16.67;9.02;;;7.70;99.90;;;;;;5109498;28;20403;-74
2022/10/09 07:21:26;;;;;;;19.38;9.90;;;7.80;99.90;;;;;;5122711;27;20896;-75
2022/10/09 07:23:52;;;;;;;17.63;9.30;;;7.70;99.90;;;;;;5114910;27;20415;-74
2022/10/09 07:26:26;;;;;;;17.90;10.18;;;7.80;99.90;;;;;;5109739;28;20415;-74
2022/10/09 07:28:52;;;;;;;17.77;10.18;;;7.80;99.90;;;;;;5110304;28;20408;-74
2022/10/09 07:31:18;;;;;;;18.38;10.27;;;7.90;99.90;;;;;;5110085;27;20778;-75
2022/10/09 07:33:53;;;;;;;20.23;11.20;;;7.90;99.90;;;;;;5110517;28;20898;-74
2022/10/09 07:36:19;;;;;;;19.40;10.45;;;7.90;99.90;;;;;;5109865;28;21022;-74
2022/10/09 07:38:50;;;;;;;22.63;10.10;;;8.00;99.90;;;;;;5112112;27;20400;-75
2022/10/09 07:41:16;;;;;;;19.83;9.90;;;8.00;99.90;;;;;;5119067;27;20922;-74
2022/10/09 07:43:42;;;;;;;17.70;9.50;;;8.10;99.90;;;;;;5110277;28;20504;-74
2022/10/09 07:46:13;;;;;;;15.33;8.77;;;8.20;99.90;;;;;;5112098;27;20921;-73
2022/10/09 07:48:39;;;;;;;15.27;8.30;;;8.20;99.90;;;;;;5109879;28;20411;-73
2022/10/09 07:51:23;;;;;;;16.77;7.90;;;8.30;99.90;;;;;;5109762;28;20400;-73
2022/10/09 07:53:49;;;;;;;12.40;7.43;;;8.40;99.90;;;;;;5109410;28;21244;-73
2022/10/09 07:56:16;;;;;;;15.55;7.50;;;8.50;99.90;;;;;;5090777;28;20511;-73
2022/10/09 07:58:43;;;;;;;14.73;7.22;;;8.50;99.90;;;;;;5109475;28;20412;-74
2022/10/09 08:01:09;;;;;;;16.65;7.50;;;8.60;99.90;;;;;;5108881;28;20412;-74
2022/10/09 08:03:35;;;;;;;13.35;7.00;;;8.70;99.90;;;;;;5108919;28;20400;-73
2022/10/09 08:06:01;;;;;;;14.05;7.40;;;8.70;99.90;;;;;;5107304;28;20404;-74
2022/10/09 08:08:27;;;;;;;11.93;7.17;;;8.80;99.90;;;;;;5108902;28;20810;-73
2022/10/09 08:10:53;;;;;;;13.07;6.80;;;8.80;99.90;;;;;;5108531;28;20438;-73
2022/10/09 08:13:18;;;;;;;13.98;7.10;;;8.90;99.90;;;;;;5107968;28;20778;-74
2022/10/09 08:15:44;;;;;;;12.50;6.50;;;9.00;99.90;;;;;;5108635;28;20463;-73
2022/10/09 08:18:11;;;;;;;11.65;7.05;;;9.10;99.90;;;;;;5107720;28;20400;-73
2022/10/09 08:20:37;;;;;;;13.30;7.07;;;9.10;99.90;;;;;;5108144;28;20449;-73
2022/10/09 08:23:03;;;;;;;11.63;6.32;;;9.20;99.90;;;;;;5104686;28;20400;-74
2022/10/09 08:25:32;;;;;;;13.10;6.30;;;9.30;99.90;;;;;;5114016;27;20427;-73
2022/10/09 08:27:57;;;;;;;12.02;6.20;;;9.40;99.90;;;;;;5089957;28;20416;-74
2022/10/09 08:30:23;;;;;;;13.50;6.13;;;9.40;99.90;;;;;;5108196;28;20396;-73
2022/10/09 08:32:49;;;;;;;12.37;6.23;;;9.60;99.90;;;;;;5108721;28;20880;-73
2022/10/09 08:35:14;;;;;;;9.32;5.15;;;9.60;99.90;;;;;;5108072;28;20416;-73
2022/10/09 08:37:40;;;;;;;12.33;5.80;;;9.70;99.90;;;;;;5106726;28;20436;-74
2022/10/09 08:40:07;;;;;;;16.25;6.25;;;9.80;99.90;;;;;;5107870;28;20408;-73
2022/10/09 08:42:47;;;;;;;12.52;5.80;;;9.90;99.90;;;;;;5108260;28;20410;-73
2022/10/09 08:45:17;;;;;;;13.13;5.30;;;10.00;99.90;;;;;;5115777;27;20431;-74
2022/10/09 08:47:55;;;;;;;11.95;5.35;;;10.10;99.90;;;;;;5107641;28;20444;-74
2022/10/09 08:50:35;;;;;;;12.63;5.22;;;10.20;99.90;;;;;;5108007;28;20440;-74
2022/10/09 08:53:38;;;;;;;12.05;5.43;;;10.30;99.90;;;;;;5108804;28;20404;-73
2022/10/09 08:56:08;;;;;;;13.95;5.10;;;10.40;99.90;;;;;;5105418;28;20747;-73
2022/10/09 08:58:37;;;;;;;12.73;5.45;;;10.60;99.90;;;;;;5108725;28;20416;-73
2022/10/09 09:01:31;;;;;;;12.20;5.63;;;10.90;99.90;;;;;;5107121;28;20981;-73
2022/10/09 09:04:03;;;;;;;6.70;3.70;;;11.90;99.90;;;;;;5107280;28;20439;-74
2022/10/09 09:06:47;;;;;;;9.30;3.78;;;13.30;99.90;;;;;;5108667;28;20577;-74
2022/10/09 09:09:43;;;;;;;8.93;3.70;;;14.30;99.90;;;;;;5108618;28;20917;-74
2022/10/09 09:12:33;;;;;;;8.00;3.23;;;15.40;99.90;;;;;;5109850;28;20400;-74
2022/10/09 09:15:24;;;;;;;9.07;2.92;;;16.50;99.90;;;;;;5109130;28;20982;-74
2022/10/09 09:18:17;;;;;;;7.63;2.40;;;17.50;99.90;;;;;;5122450;27;20411;-74
2022/10/09 09:21:04;;;;;;;7.32;2.67;;;18.30;99.90;;;;;;5108309;28;20515;-73
2022/10/09 09:23:37;;;;;;;6.77;2.47;;;18.80;99.90;;;;;;5112195;27;20424;-72
2022/10/09 09:26:16;;;;;;;8.53;1.93;;;19.30;99.90;;;;;;5109646;27;20439;-72
2022/10/09 09:28:43;;;;;;;6.63;2.00;;;19.80;99.90;;;;;;5107700;27;20477;-72
2022/10/09 09:31:35;;;;;;;6.15;2.10;;;20.20;99.90;;;;;;5109203;28;20393;-72
2022/10/09 09:34:16;;;;;;;5.68;2.17;;;20.50;99.90;;;;;;5109436;28;20415;-72
2022/10/09 09:36:48;;;;;;;6.35;2.30;;;20.80;99.90;;;;;;5104769;28;20434;-72
2022/10/09 09:39:14;;;;;;;7.18;2.10;;;21.20;99.90;;;;;;5103540;28;21040;-72
2022/10/09 09:41:41;;;;;;;7.00;1.73;;;21.50;99.90;;;;;;5108356;28;20444;-72
2022/10/09 09:44:11;;;;;;;7.22;1.95;;;21.70;99.90;;;;;;5108811;28;20392;-72
2022/10/09 09:46:38;;;;;;;6.20;1.67;;;22.10;99.90;;;;;;5109746;27;20973;-72
2022/10/09 09:49:17;;;;;;;5.72;1.40;;;22.50;99.80;;;;;;5115910;27;20395;-72
2022/10/09 09:51:42;;;;;;;3.95;1.20;;;22.80;98.40;;;;;;5107606;27;20420;-72
2022/10/09 09:54:19;;;;;;;5.73;1.20;;;22.90;97.70;;;;;;5108595;27;20392;-73
2022/10/09 09:56:46;;;;;;;5.05;1.38;;;22.90;95.90;;;;;;5113071;27;20460;-72
2022/10/09 09:59:37;;;;;;;6.45;1.20;;;23.00;95.00;;;;;;5111330;27;21040;-73
2022/10/09 10:02:26;;;;;;;4.55;1.30;;;22.90;95.20;;;;;;5108655;27;20423;-73
2022/10/09 10:04:58;;;;;;;4.00;0.98;;;23.00;93.90;;;;;;5108156;28;20404;-73
2022/10/09 10:07:35;;;;;;;5.40;1.50;;;23.10;94.50;;;;;;5107787;28;20957;-73
2022/10/09 10:10:08;;;;;;;3.90;1.13;;;23.30;93.20;;;;;;5108212;28;20928;-73
2022/10/09 10:12:39;;;;;;;6.35;1.13;;;23.50;94.10;;;;;;5107197;28;20786;-73
2022/10/09 10:15:14;;;;;;;4.70;1.05;;;23.80;93.80;;;;;;5107907;28;20419;-73
2022/10/09 10:17:40;;;;;;;5.68;0.90;;;23.90;90.80;;;;;;5107950;28;20469;-73
2022/10/09 10:20:06;;;;;;;4.27;0.90;;;23.90;92.00;;;;;;5108255;28;20404;-72
2022/10/09 10:22:32;;;;;;;4.82;1.10;;;24.00;91.80;;;;;;5107731;28;20399;-73
2022/10/09 10:24:59;;;;;;;4.15;0.80;;;24.20;91.90;;;;;;5108154;28;20416;-73
2022/10/09 10:27:40;;;;;;;6.28;1.27;;;24.40;92.10;;;;;;5107542;28;20511;-73
2022/10/09 10:30:12;;;;;;;5.55;1.20;;;24.80;90.70;;;;;;5107902;28;20454;-73
2022/10/09 10:32:56;;;;;;;6.65;1.20;;;25.00;90.20;;;;;;5107677;28;20420;-72
2022/10/09 10:35:42;;;;;;;6.57;1.23;;;25.20;90.30;;;;;;5102403;28;20420;-73
2022/10/09 10:38:31;;;;;;;6.72;1.08;;;25.40;89.20;;;;;;5106571;28;20849;-73
2022/10/09 10:41:16;;;;;;;5.67;1.10;;;25.60;87.60;;;;;;5104709;28;20432;-71
2022/10/09 10:44:00;;;;;;;5.90;1.10;;;25.60;85.80;;;;;;5108056;28;20409;-72
2022/10/09 10:46:52;;;;;;;6.30;1.23;;;25.60;85.80;;;;;;5106820;28;20433;-73
2022/10/09 10:49:20;;;;;;;5.95;1.23;;;25.60;86.30;;;;;;5106555;28;20517;-73
2022/10/09 10:52:19;;;;;;;4.83;1.00;;;25.60;83.80;;;;;;5106596;28;20423;-72
2022/10/09 10:55:17;;;;;;;6.15;1.38;;;25.60;83.50;;;;;;5096915;28;20428;-73
2022/10/09 10:57:54;;;;;;;4.97;0.93;;;25.60;83.30;;;;;;5093703;28;20430;-72
2022/10/09 11:00:20;;;;;;;3.42;1.00;;;25.80;82.40;;;;;;5091984;28;20537;-72
2022/10/09 11:03:13;;;;;;;5.35;0.93;;;25.80;81.70;;;;;;5107976;28;20491;-73
2022/10/09 11:06:02;;;;;;;5.40;1.08;;;25.80;79.70;;;;;;5107460;28;20489;-72
2022/10/09 11:08:28;;;;;;;5.55;1.17;;;25.90;80.60;;;;;;5112900;28;20411;-73
2022/10/09 11:11:15;;;;;;;5.53;0.97;;;25.90;78.70;;;;;;5110632;28;20782;-72
2022/10/09 11:14:15;;;;;;;5.15;0.70;;;26.10;77.30;;;;;;5128960;28;20412;-72
2022/10/09 11:17:26;;;;;;;5.63;0.93;;;26.10;78.00;;;;;;5119665;28;20424;-72
2022/10/09 11:20:10;;;;;;;5.38;0.93;;;26.50;75.40;;;;;;5079878;28;20407;-73
2022/10/09 11:22:53;;;;;;;3.78;0.70;;;26.50;76.00;;;;;;5066498;28;20983;-72
2022/10/09 11:25:41;;;;;;;5.15;0.80;;;26.60;73.70;;;;;;5094808;28;20481;-73
2022/10/09 11:28:14;;;;;;;4.05;0.90;;;26.70;72.00;;;;;;5109364;28;21135;-73
2022/10/09 11:31:01;;;;;;;3.67;0.65;;;26.80;73.60;;;;;;5116896;27;20397;-73
2022/10/09 11:33:42;;;;;;;4.47;0.80;;;26.90;72.30;;;;;;5098608;28;20477;-72
2022/10/09 11:36:33;;;;;;;4.68;0.85;;;26.00;70.40;;;;;;5110878;28;21116;-72
2022/10/09 11:39:12;;;;;;;5.40;0.73;;;25.50;73.50;;;;;;5130301;27;20407;-72
2022/10/09 11:41:39;;;;;;;5.33;0.80;;;25.80;73.90;;;;;;5117562;28;20408;-72
2022/10/09 11:44:18;;;;;;;4.28;0.80;;;26.20;73.20;;;;;;5115841;28;20735;-73
2022/10/09 11:46:58;;;;;;;6.80;0.82;;;25.90;71.90;;;;;;5109720;28;20405;-73
2022/10/09 11:49:42;;;;;;;4.90;1.08;;;25.50;71.00;;;;;;5125039;27;20400;-73
2022/10/09 11:52:33;;;;;;;7.63;1.00;;;25.20;72.20;;;;;;5111777;28;20388;-73
2022/10/09 11:55:19;;;;;;;5.40;0.90;;;24.70;71.50;;;;;;5109198;28;20436;-72
2022/10/09 11:57:46;;;;;;;5.43;1.10;;;24.50;72.50;;;;;;5101163;28;20403;-73
2022/10/09 12:00:12;;;;;;;4.63;0.75;;;23.70;72.10;;;;;;5110862;28;20464;-73
2022/10/09 12:02:40;;;;;;;4.93;0.70;;;23.50;72.90;;;;;;5110259;28;21100;-72
2022/10/09 12:05:31;;;;;;;4.65;0.70;;;24.10;72.50;;;;;;5111326;28;20396;-72
2022/10/09 12:08:23;;;;;;;3.17;0.73;;;24.90;71.50;;;;;;5110698;28;20456;-73
2022/10/09 12:10:54;;;;;;;3.72;0.52;;;25.40;71.10;;;;;;5107230;28;20908;-73
2022/10/09 12:13:50;;;;;;;5.07;0.83;;;26.10;70.00;;;;;;5110758;28;20443;-72
2022/10/09 12:16:33;;;;;;;3.90;0.70;;;26.30;67.30;;;;;;5110406;28;20432;-73
2022/10/09 12:19:05;;;;;;;3.70;1.00;;;26.50;68.30;;;;;;5108791;28;20416;-72
2022/10/09 12:21:44;;;;;;;4.35;0.80;;;26.70;66.20;;;;;;5110714;28;20400;-73
2022/10/09 12:24:18;;;;;;;5.07;1.10;;;26.80;66.70;;;;;;5109380;28;20440;-73
2022/10/09 12:26:45;;;;;;;4.45;0.95;;;27.10;66.80;;;;;;5109385;28;20408;-72
2022/10/09 12:29:22;;;;;;;4.95;0.98;;;27.30;65.70;;;;;;5110560;28;21023;-72
2022/10/09 12:31:51;;;;;;;4.28;0.82;;;27.50;65.40;;;;;;5110598;28;21129;-72
2022/10/09 12:34:26;;;;;;;6.50;1.00;;;27.30;64.60;;;;;;5108685;28;20408;-73
2022/10/09 12:37:13;;;;;;;5.50;0.70;;;27.30;63.80;;;;;;5108737;28;20432;-72
2022/10/09 12:39:39;;;;;;;4.45;0.85;;;27.30;64.60;;;;;;5109262;28;20404;-72
2022/10/09 12:42:12;;;;;;;3.65;0.90;;;27.60;64.10;;;;;;5110683;28;20475;-73
2022/10/09 12:44:38;;;;;;;5.63;0.75;;;27.70;63.10;;;;;;5108091;28;20845;-73
2022/10/09 12:47:17;;;;;;;5.27;1.10;;;27.70;63.10;;;;;;5109789;28;20545;-73
2022/10/09 12:50:00;;;;;;;5.30;0.88;;;28.00;62.90;;;;;;5098176;28;20455;-73
2022/10/09 12:52:27;;;;;;;5.43;1.05;;;28.00;59.90;;;;;;5108909;28;20407;-73
2022/10/09 12:54:52;;;;;;;5.82;0.82;;;27.80;59.10;;;;;;5107652;28;20960;-72
2022/10/09 12:57:18;;;;;;;4.68;0.80;;;27.80;61.20;;;;;;5109406;28;20416;-73
2022/10/09 12:59:45;;;;;;;4.30;0.87;;;28.00;60.10;;;;;;5109725;28;20424;-73
2022/10/09 13:02:19;;;;;;;3.65;0.50;;;28.10;60.40;;;;;;5110037;28;20412;-73
2022/10/09 13:04:59;;;;;;;5.88;0.70;;;28.20;59.70;;;;;;5109651;28;20471;-73
2022/10/09 13:07:27;;;;;;;3.70;0.50;;;28.50;59.60;;;;;;5107930;28;20448;-72
2022/10/09 13:10:17;;;;;;;3.50;0.55;;;28.60;58.30;;;;;;5109740;28;20415;-72
2022/10/09 13:12:52;;;;;;;4.38;0.60;;;28.60;56.50;;;;;;5108535;28;20404;-72
2022/10/09 13:15:34;;;;;;;4.05;0.90;;;28.40;57.90;;;;;;5107344;28;20428;-73